メインページ
METAR-TAF:

METAR-TAF

空港 :

イルクーツク, ロシア

イルクーツク国際空港

緯度: 52-16N, 経度: 104-19E, 海抜: 513m

現時点の気象観測

当レポートは37分前の14:00(UTC)に作成
東/南東の風 6kt
気温 19°C
湿度 68%
気圧 1007 hPa
視程10km以上
高度5000ftの雲はほとんどない, 積乱雲.

METAR: UIII 271400Z 11003MPS 9999 FEW050CB 19/13 Q1007 R12/60D NOSIG RMK QFE713/0951

時間: 22:37 (14:37 UTC)

予報

当レポートは3時間37分前の11:00(UTC)に作成
予報は27日の 12時(UTC)から 28日の 12時(UTC)まで有効
変向風 2kt
視程10km以上
高度2000ftの雲は散在している, 積乱雲.
27日の 12時(UTC)から 27日の 20時(UTC)まで一時的に
視程: 2900m
高度900ftの千切れ雲あり, 積乱雲.
激しい雷雨, 小雨

TAF: UIII 271100Z 2712/2812 VRB01MPS 9999 SCT020CB TEMPO 2712/2720 2900 -TSRA BKN009CB

4,000以上の空港の気象観測と天気予報(METAR報とTAF報)

利用可能な観測所は地図上に黄色い丸と赤い丸で示す。

丸の上にカーソルを重ねると観測所名を参照できる。

次にクリックすると気象観測と天気予報を参照できる。

マップの切り替え:黒色「×」印の緑ボタンをクリックして拡大、「-」印の緑ボタンをクリックして縮小、緑色の三角印をクリックして隣りの地図に切り替え


METAR-TAF: